sensor_id;sensor_type;location;lat;lon;timestamp;pressure;altitude;pressure_sealevel;temperature;humidity
34065;BME280;20339;49.754;20.158;2023-02-15T00:01:13;98257.70;;;1.61;93.59
34065;BME280;20339;49.754;20.158;2023-02-15T00:03:44;98254.98;;;1.62;93.69
34065;BME280;20339;49.754;20.158;2023-02-15T00:06:18;98250.42;;;1.61;93.68
34065;BME280;20339;49.754;20.158;2023-02-15T00:08:49;98250.02;;;1.62;93.68
34065;BME280;20339;49.754;20.158;2023-02-15T00:11:20;98252.11;;;1.61;93.59
34065;BME280;20339;49.754;20.158;2023-02-15T00:14:11;98244.67;;;1.61;93.62
34065;BME280;20339;49.754;20.158;2023-02-15T00:16:43;98246.13;;;1.59;93.61
34065;BME280;20339;49.754;20.158;2023-02-15T00:19:16;98245.03;;;1.58;93.97
34065;BME280;20339;49.754;20.158;2023-02-15T00:21:48;98241.17;;;1.57;93.91
34065;BME280;20339;49.754;20.158;2023-02-15T00:24:20;98240.42;;;1.56;94.02
34065;BME280;20339;49.754;20.158;2023-02-15T00:26:51;98240.48;;;1.55;93.93
34065;BME280;20339;49.754;20.158;2023-02-15T00:29:22;98243.98;;;1.54;94.08
34065;BME280;20339;49.754;20.158;2023-02-15T00:31:53;98241.48;;;1.51;94.09
34065;BME280;20339;49.754;20.158;2023-02-15T00:34:26;98244.46;;;1.49;93.80
34065;BME280;20339;49.754;20.158;2023-02-15T00:36:57;98241.88;;;1.51;93.80
34065;BME280;20339;49.754;20.158;2023-02-15T00:39:28;98238.39;;;1.52;93.78
34065;BME280;20339;49.754;20.158;2023-02-15T00:41:59;98234.05;;;1.52;93.86
34065;BME280;20339;49.754;20.158;2023-02-15T00:44:30;98229.84;;;1.46;93.98
34065;BME280;20339;49.754;20.158;2023-02-15T00:47:01;98229.64;;;1.41;93.87
34065;BME280;20339;49.754;20.158;2023-02-15T00:49:32;98228.11;;;1.36;93.95
34065;BME280;20339;49.754;20.158;2023-02-15T00:52:04;98227.77;;;1.30;94.25
34065;BME280;20339;49.754;20.158;2023-02-15T00:54:35;98226.61;;;1.28;94.38
34065;BME280;20339;49.754;20.158;2023-02-15T00:57:08;98224.27;;;1.28;94.29
34065;BME280;20339;49.754;20.158;2023-02-15T00:59:39;98225.02;;;1.29;94.29
34065;BME280;20339;49.754;20.158;2023-02-15T01:02:10;98222.08;;;1.28;94.45
34065;BME280;20339;49.754;20.158;2023-02-15T01:04:43;98223.38;;;1.30;94.31
34065;BME280;20339;49.754;20.158;2023-02-15T01:07:14;98218.32;;;1.31;94.34
34065;BME280;20339;49.754;20.158;2023-02-15T01:09:45;98209.79;;;1.29;94.40
34065;BME280;20339;49.754;20.158;2023-02-15T01:12:16;98215.58;;;1.27;94.39
34065;BME280;20339;49.754;20.158;2023-02-15T01:14:47;98214.03;;;1.24;94.50
34065;BME280;20339;49.754;20.158;2023-02-15T01:17:18;98213.91;;;1.21;94.63
34065;BME280;20339;49.754;20.158;2023-02-15T01:19:49;98214.66;;;1.20;94.69
34065;BME280;20339;49.754;20.158;2023-02-15T01:22:21;98214.27;;;1.24;94.81
34065;BME280;20339;49.754;20.158;2023-02-15T01:24:52;98210.02;;;1.24;94.71
34065;BME280;20339;49.754;20.158;2023-02-15T01:27:23;98206.48;;;1.25;94.80
34065;BME280;20339;49.754;20.158;2023-02-15T01:29:54;98203.10;;;1.25;94.75
34065;BME280;20339;49.754;20.158;2023-02-15T01:32:25;98199.41;;;1.27;94.73
34065;BME280;20339;49.754;20.158;2023-02-15T01:34:57;98194.12;;;1.26;94.63
34065;BME280;20339;49.754;20.158;2023-02-15T01:37:29;98191.45;;;1.25;94.65
34065;BME280;20339;49.754;20.158;2023-02-15T01:40:00;98186.30;;;1.24;94.67
34065;BME280;20339;49.754;20.158;2023-02-15T01:42:32;98182.55;;;1.24;94.67
34065;BME280;20339;49.754;20.158;2023-02-15T01:45:05;98185.50;;;1.24;94.79
34065;BME280;20339;49.754;20.158;2023-02-15T01:47:47;98185.06;;;1.25;94.63
34065;BME280;20339;49.754;20.158;2023-02-15T01:50:23;98183.02;;;1.25;94.64
34065;BME280;20339;49.754;20.158;2023-02-15T01:53:01;98177.63;;;1.27;94.59
34065;BME280;20339;49.754;20.158;2023-02-15T01:55:36;98174.13;;;1.29;94.65
34065;BME280;20339;49.754;20.158;2023-02-15T01:58:08;98168.15;;;1.29;94.65
34065;BME280;20339;49.754;20.158;2023-02-15T02:00:40;98166.38;;;1.29;94.70
34065;BME280;20339;49.754;20.158;2023-02-15T02:03:12;98163.67;;;1.32;94.76
34065;BME280;20339;49.754;20.158;2023-02-15T02:05:43;98160.77;;;1.31;94.52
34065;BME280;20339;49.754;20.158;2023-02-15T02:08:14;98163.16;;;1.29;94.49
34065;BME280;20339;49.754;20.158;2023-02-15T02:10:45;98161.59;;;1.29;94.41
34065;BME280;20339;49.754;20.158;2023-02-15T02:13:16;98158.04;;;1.28;94.45
34065;BME280;20339;49.754;20.158;2023-02-15T02:15:51;98161.02;;;1.25;94.50
34065;BME280;20339;49.754;20.158;2023-02-15T02:18:35;98156.61;;;1.22;94.43
34065;BME280;20339;49.754;20.158;2023-02-15T02:24:43;98151.89;;;1.16;94.43
34065;BME280;20339;49.754;20.158;2023-02-15T02:27:27;98146.69;;;1.15;94.48
34065;BME280;20339;49.754;20.158;2023-02-15T02:30:23;98142.89;;;1.11;94.53
34065;BME280;20339;49.754;20.158;2023-02-15T02:36:12;98142.04;;;1.11;94.43
34065;BME280;20339;49.754;20.158;2023-02-15T02:38:58;98138.19;;;1.11;94.62
34065;BME280;20339;49.754;20.158;2023-02-15T02:41:35;98136.89;;;1.08;94.60
34065;BME280;20339;49.754;20.158;2023-02-15T02:44:16;98136.53;;;1.04;94.60
34065;BME280;20339;49.754;20.158;2023-02-15T02:46:52;98137.13;;;1.00;94.54
34065;BME280;20339;49.754;20.158;2023-02-15T02:49:33;98133.09;;;1.02;94.79
34065;BME280;20339;49.754;20.158;2023-02-15T02:52:07;98130.19;;;1.04;94.80
34065;BME280;20339;49.754;20.158;2023-02-15T02:54:38;98131.05;;;1.01;94.89
34065;BME280;20339;49.754;20.158;2023-02-15T02:57:10;98132.42;;;0.95;95.01
34065;BME280;20339;49.754;20.158;2023-02-15T02:59:43;98129.99;;;0.94;94.95
34065;BME280;20339;49.754;20.158;2023-02-15T03:02:21;98129.23;;;0.97;94.96
34065;BME280;20339;49.754;20.158;2023-02-15T03:04:57;98129.92;;;0.99;95.04
34065;BME280;20339;49.754;20.158;2023-02-15T03:07:33;98135.37;;;0.99;95.01
34065;BME280;20339;49.754;20.158;2023-02-15T03:10:07;98135.20;;;0.97;95.06
34065;BME280;20339;49.754;20.158;2023-02-15T03:12:40;98136.30;;;0.91;95.05
34065;BME280;20339;49.754;20.158;2023-02-15T03:15:13;98132.75;;;0.82;94.86
34065;BME280;20339;49.754;20.158;2023-02-15T03:17:49;98135.17;;;0.76;95.28
34065;BME280;20339;49.754;20.158;2023-02-15T03:20:25;98140.88;;;0.74;95.38
34065;BME280;20339;49.754;20.158;2023-02-15T03:23:02;98141.99;;;0.73;95.62
34065;BME280;20339;49.754;20.158;2023-02-15T03:25:37;98144.59;;;0.75;95.73
34065;BME280;20339;49.754;20.158;2023-02-15T03:28:13;98140.98;;;0.71;95.57
34065;BME280;20339;49.754;20.158;2023-02-15T03:30:48;98144.39;;;0.66;95.63
34065;BME280;20339;49.754;20.158;2023-02-15T03:33:23;98140.60;;;0.64;95.83
34065;BME280;20339;49.754;20.158;2023-02-15T03:36:01;98138.15;;;0.62;95.88
34065;BME280;20339;49.754;20.158;2023-02-15T03:38:36;98135.19;;;0.64;95.78
34065;BME280;20339;49.754;20.158;2023-02-15T03:41:11;98132.64;;;0.67;95.86
34065;BME280;20339;49.754;20.158;2023-02-15T03:43:47;98134.05;;;0.67;95.99
34065;BME280;20339;49.754;20.158;2023-02-15T03:46:23;98138.06;;;0.67;96.01
34065;BME280;20339;49.754;20.158;2023-02-15T03:49:00;98131.74;;;0.62;95.98
34065;BME280;20339;49.754;20.158;2023-02-15T03:51:34;98125.84;;;0.56;95.91
34065;BME280;20339;49.754;20.158;2023-02-15T03:54:10;98124.61;;;0.53;95.90
34065;BME280;20339;49.754;20.158;2023-02-15T03:56:43;98121.42;;;0.52;96.24
34065;BME280;20339;49.754;20.158;2023-02-15T03:59:34;98120.59;;;0.52;96.03
34065;BME280;20339;49.754;20.158;2023-02-15T04:02:40;98120.73;;;0.49;96.14
34065;BME280;20339;49.754;20.158;2023-02-15T04:05:16;98114.20;;;0.49;96.25
34065;BME280;20339;49.754;20.158;2023-02-15T04:07:47;98109.69;;;0.46;96.36
34065;BME280;20339;49.754;20.158;2023-02-15T04:10:19;98114.98;;;0.41;96.55
34065;BME280;20339;49.754;20.158;2023-02-15T04:13:07;98115.48;;;0.36;96.87
34065;BME280;20339;49.754;20.158;2023-02-15T04:15:38;98114.02;;;0.35;96.74
34065;BME280;20339;49.754;20.158;2023-02-15T04:18:27;98110.23;;;0.38;96.99
34065;BME280;20339;49.754;20.158;2023-02-15T04:21:16;98111.58;;;0.38;96.71
34065;BME280;20339;49.754;20.158;2023-02-15T04:24:05;98108.62;;;0.40;96.99
34065;BME280;20339;49.754;20.158;2023-02-15T04:26:54;98106.05;;;0.41;96.99
34065;BME280;20339;49.754;20.158;2023-02-15T04:29:26;98105.70;;;0.41;97.09
34065;BME280;20339;49.754;20.158;2023-02-15T04:32:00;98110.33;;;0.39;97.00
34065;BME280;20339;49.754;20.158;2023-02-15T04:34:31;98115.83;;;0.36;97.06
34065;BME280;20339;49.754;20.158;2023-02-15T04:37:02;98113.19;;;0.37;96.97
34065;BME280;20339;49.754;20.158;2023-02-15T04:39:33;98109.11;;;0.34;97.01
34065;BME280;20339;49.754;20.158;2023-02-15T04:42:04;98109.55;;;0.32;96.81
34065;BME280;20339;49.754;20.158;2023-02-15T04:44:35;98109.58;;;0.29;97.02
34065;BME280;20339;49.754;20.158;2023-02-15T04:47:06;98109.98;;;0.23;96.95
34065;BME280;20339;49.754;20.158;2023-02-15T04:49:37;98108.25;;;0.19;97.04
34065;BME280;20339;49.754;20.158;2023-02-15T04:52:08;98112.11;;;0.17;96.96
34065;BME280;20339;49.754;20.158;2023-02-15T04:54:39;98110.44;;;0.15;97.27
34065;BME280;20339;49.754;20.158;2023-02-15T04:57:10;98112.25;;;0.11;97.27
34065;BME280;20339;49.754;20.158;2023-02-15T04:59:42;98112.38;;;0.12;97.33
34065;BME280;20339;49.754;20.158;2023-02-15T05:02:13;98112.42;;;0.10;97.50
34065;BME280;20339;49.754;20.158;2023-02-15T05:04:44;98110.44;;;0.06;97.46
34065;BME280;20339;49.754;20.158;2023-02-15T05:07:15;98109.02;;;0.05;97.39
34065;BME280;20339;49.754;20.158;2023-02-15T05:09:46;98102.11;;;0.04;97.54
34065;BME280;20339;49.754;20.158;2023-02-15T05:12:17;98107.00;;;-0.01;97.49
34065;BME280;20339;49.754;20.158;2023-02-15T05:14:47;98111.42;;;-0.02;97.45
34065;BME280;20339;49.754;20.158;2023-02-15T05:17:18;98109.91;;;-0.04;97.51
34065;BME280;20339;49.754;20.158;2023-02-15T05:19:55;98115.26;;;-0.08;97.48
34065;BME280;20339;49.754;20.158;2023-02-15T05:22:30;98115.63;;;-0.12;97.81
34065;BME280;20339;49.754;20.158;2023-02-15T05:25:01;98117.37;;;-0.14;97.68
34065;BME280;20339;49.754;20.158;2023-02-15T05:27:50;98120.48;;;-0.20;98.00
34065;BME280;20339;49.754;20.158;2023-02-15T05:30:38;98124.45;;;-0.29;98.27
34065;BME280;20339;49.754;20.158;2023-02-15T05:33:10;98125.81;;;-0.33;98.36
34065;BME280;20339;49.754;20.158;2023-02-15T05:35:41;98124.09;;;-0.32;98.29
34065;BME280;20339;49.754;20.158;2023-02-15T05:38:12;98126.27;;;-0.30;98.50
34065;BME280;20339;49.754;20.158;2023-02-15T05:40:43;98128.28;;;-0.29;98.60
34065;BME280;20339;49.754;20.158;2023-02-15T05:43:14;98130.23;;;-0.30;98.78
34065;BME280;20339;49.754;20.158;2023-02-15T05:45:47;98133.16;;;-0.32;98.90
34065;BME280;20339;49.754;20.158;2023-02-15T05:48:19;98128.80;;;-0.34;98.91
34065;BME280;20339;49.754;20.158;2023-02-15T05:51:00;98128.81;;;-0.35;98.73
34065;BME280;20339;49.754;20.158;2023-02-15T05:53:33;98125.46;;;-0.39;98.95
34065;BME280;20339;49.754;20.158;2023-02-15T05:56:06;98121.30;;;-0.44;98.98
34065;BME280;20339;49.754;20.158;2023-02-15T05:58:40;98126.05;;;-0.48;99.13
34065;BME280;20339;49.754;20.158;2023-02-15T06:01:12;98129.52;;;-0.50;99.15
34065;BME280;20339;49.754;20.158;2023-02-15T06:03:44;98131.39;;;-0.49;99.65
34065;BME280;20339;49.754;20.158;2023-02-15T06:06:16;98131.98;;;-0.49;99.90
34065;BME280;20339;49.754;20.158;2023-02-15T06:08:47;98133.54;;;-0.48;99.57
34065;BME280;20339;49.754;20.158;2023-02-15T06:11:18;98130.70;;;-0.47;99.70
34065;BME280;20339;49.754;20.158;2023-02-15T06:13:49;98127.80;;;-0.51;99.84
34065;BME280;20339;49.754;20.158;2023-02-15T06:16:20;98131.96;;;-0.51;99.75
34065;BME280;20339;49.754;20.158;2023-02-15T06:18:51;98126.98;;;-0.47;99.97
34065;BME280;20339;49.754;20.158;2023-02-15T06:21:23;98128.28;;;-0.46;99.93
34065;BME280;20339;49.754;20.158;2023-02-15T06:23:55;98131.02;;;-0.43;99.91
34065;BME280;20339;49.754;20.158;2023-02-15T06:26:26;98128.00;;;-0.39;100.00
34065;BME280;20339;49.754;20.158;2023-02-15T06:28:57;98128.58;;;-0.33;100.00
34065;BME280;20339;49.754;20.158;2023-02-15T06:31:28;98132.30;;;-0.31;99.99
34065;BME280;20339;49.754;20.158;2023-02-15T06:34:00;98130.50;;;-0.27;99.93
34065;BME280;20339;49.754;20.158;2023-02-15T06:36:31;98128.08;;;-0.21;100.00
34065;BME280;20339;49.754;20.158;2023-02-15T06:39:03;98126.80;;;-0.10;100.00
34065;BME280;20339;49.754;20.158;2023-02-15T06:41:35;98122.64;;;0.04;99.99
34065;BME280;20339;49.754;20.158;2023-02-15T06:44:06;98124.60;;;0.20;99.89
34065;BME280;20339;49.754;20.158;2023-02-15T06:46:37;98123.19;;;0.34;99.63
34065;BME280;20339;49.754;20.158;2023-02-15T06:49:08;98117.66;;;0.65;99.67
34065;BME280;20339;49.754;20.158;2023-02-15T06:51:40;98113.27;;;1.04;99.41
34065;BME280;20339;49.754;20.158;2023-02-15T06:54:11;98111.73;;;1.35;98.21
34065;BME280;20339;49.754;20.158;2023-02-15T06:56:42;98112.57;;;1.25;97.42
34065;BME280;20339;49.754;20.158;2023-02-15T06:59:13;98113.45;;;1.41;97.27
34065;BME280;20339;49.754;20.158;2023-02-15T07:01:45;98112.36;;;2.12;97.57
34065;BME280;20339;49.754;20.158;2023-02-15T07:04:16;98106.03;;;2.96;96.75
34065;BME280;20339;49.754;20.158;2023-02-15T07:06:46;98103.29;;;3.27;94.49
34065;BME280;20339;49.754;20.158;2023-02-15T07:09:20;98110.20;;;3.86;93.10
34065;BME280;20339;49.754;20.158;2023-02-15T07:11:51;98113.39;;;4.55;92.21
34065;BME280;20339;49.754;20.158;2023-02-15T07:14:40;98109.11;;;4.89;90.02
34065;BME280;20339;49.754;20.158;2023-02-15T07:17:11;98105.47;;;5.36;88.99
34065;BME280;20339;49.754;20.158;2023-02-15T07:19:42;98108.45;;;5.61;84.82
34065;BME280;20339;49.754;20.158;2023-02-15T07:22:13;98102.73;;;5.81;85.95
34065;BME280;20339;49.754;20.158;2023-02-15T07:24:44;98095.95;;;6.83;86.52
34065;BME280;20339;49.754;20.158;2023-02-15T07:27:15;98090.33;;;7.47;83.14
34065;BME280;20339;49.754;20.158;2023-02-15T07:29:47;98089.27;;;7.52;80.95
34065;BME280;20339;49.754;20.158;2023-02-15T07:32:18;98084.75;;;7.65;80.02
34065;BME280;20339;49.754;20.158;2023-02-15T07:34:49;98081.59;;;8.10;80.24
34065;BME280;20339;49.754;20.158;2023-02-15T07:37:20;98078.98;;;8.24;76.85
34065;BME280;20339;49.754;20.158;2023-02-15T07:39:51;98082.33;;;7.79;74.06
34065;BME280;20339;49.754;20.158;2023-02-15T07:42:22;98080.42;;;7.44;74.70
34065;BME280;20339;49.754;20.158;2023-02-15T07:44:53;98079.27;;;7.52;73.39
34065;BME280;20339;49.754;20.158;2023-02-15T07:47:24;98075.91;;;7.41;72.22
34065;BME280;20339;49.754;20.158;2023-02-15T07:49:56;98074.14;;;7.29;70.55
34065;BME280;20339;49.754;20.158;2023-02-15T07:52:28;98077.03;;;7.03;70.39
34065;BME280;20339;49.754;20.158;2023-02-15T07:54:59;98074.65;;;7.34;72.03
34065;BME280;20339;49.754;20.158;2023-02-15T07:57:29;98074.28;;;8.07;71.31
34065;BME280;20339;49.754;20.158;2023-02-15T08:00:00;98071.20;;;8.33;69.12
34065;BME280;20339;49.754;20.158;2023-02-15T08:02:31;98074.88;;;8.14;67.87
34065;BME280;20339;49.754;20.158;2023-02-15T08:05:04;98069.67;;;8.25;67.99
34065;BME280;20339;49.754;20.158;2023-02-15T08:07:35;98066.88;;;8.56;67.37
34065;BME280;20339;49.754;20.158;2023-02-15T08:10:07;98064.98;;;8.76;66.01
34065;BME280;20339;49.754;20.158;2023-02-15T08:12:39;98062.19;;;8.99;66.16
34065;BME280;20339;49.754;20.158;2023-02-15T08:15:10;98059.13;;;9.43;65.21
34065;BME280;20339;49.754;20.158;2023-02-15T08:17:41;98059.58;;;9.57;64.07
34065;BME280;20339;49.754;20.158;2023-02-15T08:20:12;98054.27;;;9.78;63.59
34065;BME280;20339;49.754;20.158;2023-02-15T08:22:43;98052.06;;;9.93;63.32
34065;BME280;20339;49.754;20.158;2023-02-15T08:25:14;98049.88;;;10.29;63.14
34065;BME280;20339;49.754;20.158;2023-02-15T08:27:45;98044.50;;;10.61;63.25
34065;BME280;20339;49.754;20.158;2023-02-15T08:30:17;98044.14;;;10.85;62.88
34065;BME280;20339;49.754;20.158;2023-02-15T08:32:47;98043.20;;;11.18;62.00
34065;BME280;20339;49.754;20.158;2023-02-15T08:35:19;98041.31;;;11.33;60.98
34065;BME280;20339;49.754;20.158;2023-02-15T08:37:49;98038.86;;;10.98;59.11
34065;BME280;20339;49.754;20.158;2023-02-15T08:40:22;98044.19;;;10.13;58.66
34065;BME280;20339;49.754;20.158;2023-02-15T08:42:52;98036.89;;;9.89;59.96
34065;BME280;20339;49.754;20.158;2023-02-15T08:45:23;98038.38;;;9.98;59.91
34065;BME280;20339;49.754;20.158;2023-02-15T08:47:55;98041.00;;;9.88;59.74
34065;BME280;20339;49.754;20.158;2023-02-15T08:50:26;98037.50;;;9.82;59.76
34065;BME280;20339;49.754;20.158;2023-02-15T08:52:57;98036.27;;;9.57;59.81
34065;BME280;20339;49.754;20.158;2023-02-15T08:55:28;98031.15;;;9.62;60.17
34065;BME280;20339;49.754;20.158;2023-02-15T08:57:59;98032.27;;;9.10;59.33
34065;BME280;20339;49.754;20.158;2023-02-15T09:00:30;98030.66;;;8.60;60.04
34065;BME280;20339;49.754;20.158;2023-02-15T09:03:01;98029.94;;;8.14;59.58
34065;BME280;20339;49.754;20.158;2023-02-15T09:05:33;98033.45;;;7.71;60.25
34065;BME280;20339;49.754;20.158;2023-02-15T09:08:04;98030.38;;;7.47;61.17
34065;BME280;20339;49.754;20.158;2023-02-15T09:10:35;98024.77;;;7.25;61.19
34065;BME280;20339;49.754;20.158;2023-02-15T09:13:07;98024.97;;;7.00;61.04
34065;BME280;20339;49.754;20.158;2023-02-15T09:15:38;98021.92;;;6.74;61.98
34065;BME280;20339;49.754;20.158;2023-02-15T09:18:09;98016.59;;;6.77;63.04
34065;BME280;20339;49.754;20.158;2023-02-15T09:20:41;98016.04;;;6.79;62.86
34065;BME280;20339;49.754;20.158;2023-02-15T09:23:12;98016.58;;;6.71;62.83
34065;BME280;20339;49.754;20.158;2023-02-15T09:25:45;98016.98;;;6.58;62.81
34065;BME280;20339;49.754;20.158;2023-02-15T09:28:16;98016.55;;;6.39;63.09
34065;BME280;20339;49.754;20.158;2023-02-15T09:30:47;98014.66;;;6.25;63.36
34065;BME280;20339;49.754;20.158;2023-02-15T09:33:18;98012.77;;;6.18;63.76
34065;BME280;20339;49.754;20.158;2023-02-15T09:35:49;98012.05;;;6.05;63.91
34065;BME280;20339;49.754;20.158;2023-02-15T09:38:20;98007.73;;;5.98;63.76
34065;BME280;20339;49.754;20.158;2023-02-15T09:40:55;98004.02;;;5.93;63.84
34065;BME280;20339;49.754;20.158;2023-02-15T09:43:37;98002.48;;;5.98;64.15
34065;BME280;20339;49.754;20.158;2023-02-15T09:46:25;98006.14;;;6.06;64.16
34065;BME280;20339;49.754;20.158;2023-02-15T09:49:06;98006.40;;;6.04;64.39
34065;BME280;20339;49.754;20.158;2023-02-15T09:51:57;97999.73;;;6.23;64.90
34065;BME280;20339;49.754;20.158;2023-02-15T09:54:42;98003.87;;;6.34;64.38
34065;BME280;20339;49.754;20.158;2023-02-15T09:57:22;98003.83;;;6.48;64.49
34065;BME280;20339;49.754;20.158;2023-02-15T10:00:05;98000.23;;;6.59;64.36
34065;BME280;20339;49.754;20.158;2023-02-15T10:02:49;97997.13;;;6.63;63.77
34065;BME280;20339;49.754;20.158;2023-02-15T10:05:29;97992.47;;;6.69;63.76
34065;BME280;20339;49.754;20.158;2023-02-15T10:11:19;97989.40;;;6.60;63.15
34065;BME280;20339;49.754;20.158;2023-02-15T10:14:50;97989.24;;;6.79;63.73
34065;BME280;20339;49.754;20.158;2023-02-15T10:17:37;97986.57;;;6.96;63.29
34065;BME280;20339;49.754;20.158;2023-02-15T10:20:23;97980.25;;;7.06;63.17
34065;BME280;20339;49.754;20.158;2023-02-15T10:23:13;97980.13;;;7.25;64.01
34065;BME280;20339;49.754;20.158;2023-02-15T10:25:49;97977.20;;;7.58;64.08
34065;BME280;20339;49.754;20.158;2023-02-15T10:28:26;97979.54;;;7.77;63.48
34065;BME280;20339;49.754;20.158;2023-02-15T10:31:05;97974.52;;;7.88;63.17
34065;BME280;20339;49.754;20.158;2023-02-15T10:33:43;97974.27;;;7.84;60.89
34065;BME280;20339;49.754;20.158;2023-02-15T10:36:26;97973.92;;;7.60;61.28
34065;BME280;20339;49.754;20.158;2023-02-15T10:39:04;97969.45;;;7.68;62.09
34065;BME280;20339;49.754;20.158;2023-02-15T10:41:45;97966.65;;;7.68;61.93
34065;BME280;20339;49.754;20.158;2023-02-15T10:44:35;97965.50;;;7.59;61.72
34065;BME280;20339;49.754;20.158;2023-02-15T10:47:33;97967.83;;;7.46;62.06
34065;BME280;20339;49.754;20.158;2023-02-15T10:50:33;97965.94;;;7.53;62.84
34065;BME280;20339;49.754;20.158;2023-02-15T10:53:26;97963.56;;;7.63;63.14
34065;BME280;20339;49.754;20.158;2023-02-15T10:56:09;97960.14;;;7.85;63.43
34065;BME280;20339;49.754;20.158;2023-02-15T10:58:54;97956.58;;;8.00;63.46
34065;BME280;20339;49.754;20.158;2023-02-15T11:01:35;97947.07;;;8.26;63.57
34065;BME280;20339;49.754;20.158;2023-02-15T11:04:30;97940.27;;;8.43;63.55
34065;BME280;20339;49.754;20.158;2023-02-15T11:07:08;97936.05;;;8.63;63.81
34065;BME280;20339;49.754;20.158;2023-02-15T11:09:46;97934.30;;;8.66;62.81
34065;BME280;20339;49.754;20.158;2023-02-15T11:12:21;97926.05;;;8.42;62.92
34065;BME280;20339;49.754;20.158;2023-02-15T11:14:58;97922.35;;;8.41;63.38
34065;BME280;20339;49.754;20.158;2023-02-15T11:17:35;97920.92;;;8.38;62.94
34065;BME280;20339;49.754;20.158;2023-02-15T11:20:17;97923.13;;;8.50;63.37
34065;BME280;20339;49.754;20.158;2023-02-15T11:22:54;97919.77;;;8.48;62.88
34065;BME280;20339;49.754;20.158;2023-02-15T11:25:35;97917.73;;;8.50;62.82
34065;BME280;20339;49.754;20.158;2023-02-15T11:28:16;97913.17;;;8.42;62.06
34065;BME280;20339;49.754;20.158;2023-02-15T11:30:53;97908.09;;;8.43;62.68
34065;BME280;20339;49.754;20.158;2023-02-15T11:33:29;97905.41;;;8.60;62.55
34065;BME280;20339;49.754;20.158;2023-02-15T11:36:05;97905.29;;;8.80;62.09
34065;BME280;20339;49.754;20.158;2023-02-15T11:38:38;97902.55;;;8.84;61.00
34065;BME280;20339;49.754;20.158;2023-02-15T11:41:16;97900.08;;;8.92;60.89
34065;BME280;20339;49.754;20.158;2023-02-15T11:43:53;97891.57;;;9.06;61.30
34065;BME280;20339;49.754;20.158;2023-02-15T11:46:27;97892.05;;;9.25;60.77
34065;BME280;20339;49.754;20.158;2023-02-15T11:48:58;97886.12;;;9.24;60.10
34065;BME280;20339;49.754;20.158;2023-02-15T11:51:30;97889.36;;;9.16;58.75
34065;BME280;20339;49.754;20.158;2023-02-15T11:54:03;97888.00;;;9.03;58.25
34065;BME280;20339;49.754;20.158;2023-02-15T11:56:34;97886.44;;;9.06;58.98
34065;BME280;20339;49.754;20.158;2023-02-15T11:59:08;97884.05;;;9.13;58.82
34065;BME280;20339;49.754;20.158;2023-02-15T12:01:44;97881.54;;;9.16;58.78
34065;BME280;20339;49.754;20.158;2023-02-15T12:04:22;97877.99;;;9.32;59.75
34065;BME280;20339;49.754;20.158;2023-02-15T12:06:58;97872.09;;;9.55;59.78
34065;BME280;20339;49.754;20.158;2023-02-15T12:09:34;97868.92;;;9.70;59.37
34065;BME280;20339;49.754;20.158;2023-02-15T12:12:26;97868.34;;;9.80;59.59
34065;BME280;20339;49.754;20.158;2023-02-15T12:14:59;97867.84;;;9.74;58.02
34065;BME280;20339;49.754;20.158;2023-02-15T12:17:35;97862.56;;;9.75;58.73
34065;BME280;20339;49.754;20.158;2023-02-15T12:20:24;97858.86;;;9.87;58.70
34065;BME280;20339;49.754;20.158;2023-02-15T12:23:00;97857.45;;;9.96;57.96
34065;BME280;20339;49.754;20.158;2023-02-15T12:25:37;97854.34;;;9.93;57.17
34065;BME280;20339;49.754;20.158;2023-02-15T12:28:25;97847.84;;;9.89;56.48
34065;BME280;20339;49.754;20.158;2023-02-15T12:30:58;97846.19;;;9.86;56.30
34065;BME280;20339;49.754;20.158;2023-02-15T12:33:32;97842.16;;;9.89;56.36
34065;BME280;20339;49.754;20.158;2023-02-15T12:36:19;97840.25;;;9.90;55.39
34065;BME280;20339;49.754;20.158;2023-02-15T12:39:16;97838.05;;;9.73;54.91
34065;BME280;20339;49.754;20.158;2023-02-15T12:42:02;97838.07;;;9.77;55.31
34065;BME280;20339;49.754;20.158;2023-02-15T12:44:34;97833.20;;;9.64;54.06
34065;BME280;20339;49.754;20.158;2023-02-15T12:47:18;97831.25;;;9.47;55.88
34065;BME280;20339;49.754;20.158;2023-02-15T12:50:08;97829.39;;;9.50;55.63
34065;BME280;20339;49.754;20.158;2023-02-15T12:52:47;97824.40;;;9.53;54.78
34065;BME280;20339;49.754;20.158;2023-02-15T12:55:25;97823.35;;;9.68;55.45
34065;BME280;20339;49.754;20.158;2023-02-15T12:58:13;97818.32;;;9.82;54.95
34065;BME280;20339;49.754;20.158;2023-02-15T13:00:47;97814.98;;;9.82;54.33
34065;BME280;20339;49.754;20.158;2023-02-15T13:03:21;97810.77;;;9.84;54.48
34065;BME280;20339;49.754;20.158;2023-02-15T13:05:55;97806.93;;;9.90;54.40
34065;BME280;20339;49.754;20.158;2023-02-15T13:08:30;97809.85;;;9.98;54.41
34065;BME280;20339;49.754;20.158;2023-02-15T13:11:06;97808.11;;;10.01;53.78
34065;BME280;20339;49.754;20.158;2023-02-15T13:13:50;97810.20;;;10.00;53.18
34065;BME280;20339;49.754;20.158;2023-02-15T13:16:31;97806.31;;;9.95;53.59
34065;BME280;20339;49.754;20.158;2023-02-15T13:19:06;97806.60;;;10.00;53.48
34065;BME280;20339;49.754;20.158;2023-02-15T13:21:43;97806.80;;;9.99;53.62
34065;BME280;20339;49.754;20.158;2023-02-15T13:24:20;97805.23;;;9.98;53.22
34065;BME280;20339;49.754;20.158;2023-02-15T13:26:54;97804.80;;;9.92;52.92
34065;BME280;20339;49.754;20.158;2023-02-15T13:29:28;97804.74;;;9.92;53.25
34065;BME280;20339;49.754;20.158;2023-02-15T13:32:07;97803.23;;;9.98;53.14
34065;BME280;20339;49.754;20.158;2023-02-15T13:34:42;97800.09;;;10.01;52.98
34065;BME280;20339;49.754;20.158;2023-02-15T13:37:17;97795.17;;;10.00;52.79
34065;BME280;20339;49.754;20.158;2023-02-15T13:39:54;97793.92;;;10.00;53.02
34065;BME280;20339;49.754;20.158;2023-02-15T13:42:31;97794.36;;;10.03;52.94
34065;BME280;20339;49.754;20.158;2023-02-15T13:45:21;97794.05;;;10.04;52.77
34065;BME280;20339;49.754;20.158;2023-02-15T13:48:03;97792.71;;;10.08;52.77
34065;BME280;20339;49.754;20.158;2023-02-15T13:50:50;97791.45;;;10.09;52.87